createdAt,value
2022-09-15T00:02:07.537Z,99180.19
2022-09-15T00:07:11.892Z,99168.56
2022-09-15T00:12:14.522Z,99153.75
2022-09-15T00:17:17.174Z,99151.19
2022-09-15T00:22:21.310Z,99165.84
2022-09-15T00:27:23.984Z,99170.38
2022-09-15T00:32:26.772Z,99175.75
2022-09-15T00:37:30.769Z,99173.22
2022-09-15T00:42:33.849Z,99172.72
2022-09-15T00:47:37.660Z,99171.88
2022-09-15T00:52:43.465Z,99175.88
2022-09-15T00:57:47.417Z,99191.31
2022-09-15T01:02:50.372Z,99197.16
2022-09-15T01:07:55.945Z,99197.88
2022-09-15T01:13:01.011Z,99193.78
2022-09-15T01:18:10.271Z,99190.44
2022-09-15T01:23:35.875Z,99189.91
2022-09-15T01:28:56.719Z,99193.56
2022-09-15T01:34:03.377Z,99194.91
2022-09-15T01:39:08.952Z,99192.22
2022-09-15T01:44:13.134Z,99193.53
2022-09-15T01:49:19.610Z,99191.53
2022-09-15T01:54:23.334Z,99195.22
2022-09-15T01:59:25.982Z,99199.94
2022-09-15T02:04:31.984Z,99193.38
2022-09-15T02:09:35.866Z,99184.75
2022-09-15T02:14:47.215Z,99184.75
2022-09-15T02:19:51.925Z,99178.41
2022-09-15T02:24:58.101Z,99194.53
2022-09-15T02:30:05.846Z,99170.47
2022-09-15T02:35:10.381Z,99166.09
2022-09-15T02:40:13.368Z,99176.19
2022-09-15T02:45:16.211Z,99174.50
2022-09-15T02:50:20.431Z,99175.50
2022-09-15T02:55:23.114Z,99182.88
2022-09-15T03:00:25.858Z,99175.66
2022-09-15T03:05:30.538Z,99164.06
2022-09-15T03:10:33.518Z,99171.13
2022-09-15T03:15:36.330Z,99172.41
2022-09-15T03:20:40.345Z,99170.56
2022-09-15T03:25:42.988Z,99169.38
2022-09-15T03:30:46.250Z,99158.91
2022-09-15T03:35:50.590Z,99164.00
2022-09-15T03:41:01.577Z,99164.28
2022-09-15T03:46:04.485Z,99165.78
2022-09-15T03:51:08.888Z,99172.00
2022-09-15T03:56:12.561Z,99170.31
2022-09-15T04:01:15.287Z,99170.47
2022-09-15T04:06:19.590Z,99167.06
2022-09-15T04:11:22.917Z,99172.56
2022-09-15T04:16:27.601Z,99177.09
2022-09-15T04:21:32.495Z,99186.16
2022-09-15T04:26:36.358Z,99189.84
2022-09-15T04:31:39.119Z,99198.75
2022-09-15T04:36:43.582Z,99194.56
2022-09-15T04:41:46.400Z,99195.41
2022-09-15T04:46:49.391Z,99200.94
2022-09-15T04:51:53.910Z,99195.56
2022-09-15T04:56:56.676Z,99191.19
2022-09-15T05:01:59.349Z,99199.53
2022-09-15T05:07:03.431Z,99199.38
2022-09-15T05:12:06.649Z,99198.69
2022-09-15T05:17:09.288Z,99201.22
2022-09-15T05:22:13.456Z,99199.53
2022-09-15T05:27:16.128Z,99204.06
2022-09-15T05:32:18.809Z,99197.84
2022-09-15T05:37:22.833Z,99204.06
2022-09-15T05:42:25.478Z,99196.00
2022-09-15T05:47:28.190Z,99207.59
2022-09-15T05:52:32.288Z,99212.81
2022-09-15T05:57:35.002Z,99204.75
2022-09-15T06:02:37.768Z,99201.06
2022-09-15T06:07:41.798Z,99205.31
2022-09-15T06:12:44.512Z,99212.53
2022-09-15T06:17:47.143Z,99216.75
2022-09-15T06:22:51.145Z,99223.63
2022-09-15T06:27:54.246Z,99212.03
2022-09-15T06:32:56.868Z,99216.75
2022-09-15T06:38:00.952Z,99228.00
2022-09-15T06:43:03.582Z,99229.34
2022-09-15T06:48:23.440Z,99234.00
2022-09-15T06:53:29.427Z,99243.13
2022-09-15T06:58:32.081Z,99252.59
2022-09-15T07:03:34.853Z,99243.00
2022-09-15T07:08:39.597Z,99240.34
2022-09-15T07:13:42.334Z,99248.69
2022-09-15T07:18:45.022Z,99262.22
2022-09-15T07:23:49.349Z,99258.69
2022-09-15T07:28:55.366Z,99246.75
2022-09-15T07:33:59.053Z,99248.69
2022-09-15T07:39:03.690Z,99257.38
2022-09-15T07:44:08.003Z,99269.09
2022-09-15T07:49:11.181Z,99277.13
2022-09-15T07:54:19.392Z,99286.97
2022-09-15T07:59:24.232Z,99282.00
2022-09-15T08:04:27.314Z,99280.56
2022-09-15T08:09:31.404Z,99271.19
2022-09-15T08:14:34.069Z,99267.38
2022-09-15T08:19:37.189Z,99272.28
2022-09-15T08:24:41.418Z,99280.91
2022-09-15T08:29:44.072Z,99290.34
2022-09-15T08:34:46.995Z,99301.63
2022-09-15T08:39:52.023Z,99297.66
2022-09-15T08:44:57.805Z,99302.88
2022-09-15T08:50:03.538Z,99295.34
2022-09-15T08:55:11.196Z,99304.50
2022-09-15T09:00:15.712Z,99304.19
2022-09-15T09:05:36.830Z,99301.22
2022-09-15T09:10:43.106Z,99306.13
2022-09-15T09:15:51.296Z,99301.47
2022-09-15T09:20:58.864Z,99296.50
2022-09-15T09:26:05.479Z,99285.59
2022-09-15T09:31:13.742Z,99282.75
2022-09-15T09:36:16.626Z,99294.75
2022-09-15T09:41:22.195Z,99290.72
2022-09-15T09:46:24.977Z,99290.44
2022-09-15T09:51:32.188Z,99297.19
2022-09-15T09:56:36.504Z,99288.97
2022-09-15T10:01:39.250Z,99294.75
2022-09-15T10:06:42.523Z,99290.88
2022-09-15T10:11:47.758Z,99282.50
2022-09-15T10:17:00.675Z,99282.06
2022-09-15T10:22:03.394Z,99274.81
2022-09-15T10:27:21.947Z,99274.50
2022-09-15T10:32:26.604Z,99267.28
2022-09-15T10:37:32.405Z,99266.28
2022-09-15T10:42:47.463Z,99259.03
2022-09-15T10:47:57.777Z,99263.59
2022-09-15T10:53:09.684Z,99252.53
2022-09-15T10:58:45.796Z,99253.66
2022-09-15T11:03:56.961Z,99257.91
2022-09-15T11:09:05.923Z,99258.19
2022-09-15T11:14:19.550Z,99261.53
2022-09-15T11:19:40.452Z,99267.53
2022-09-15T11:24:44.310Z,99259.78
2022-09-15T11:30:01.364Z,99262.47
2022-09-15T11:35:26.423Z,99274.84
2022-09-15T11:40:30.229Z,99276.16
2022-09-15T11:45:36.419Z,99280.97
2022-09-15T11:50:40.086Z,99277.59
2022-09-15T11:55:44.093Z,99282.16
2022-09-15T12:00:53.814Z,99281.31
2022-09-15T12:05:58.053Z,99281.47
2022-09-15T12:11:02.102Z,99283.31
2022-09-15T12:16:06.638Z,99295.28
2022-09-15T12:21:12.860Z,99284.22
2022-09-15T12:26:17.486Z,99280.53
2022-09-15T12:31:32.758Z,99277.53
2022-09-15T12:36:43.633Z,99278.53
2022-09-15T12:41:48.548Z,99274.84
2022-09-15T12:46:53.664Z,99282.59
2022-09-15T12:51:56.406Z,99293.06
2022-09-15T12:56:59.063Z,99283.56
2022-09-15T13:02:03.348Z,99289.97
2022-09-15T13:07:32.511Z,99293.00
2022-09-15T13:12:38.048Z,99290.25
2022-09-15T13:17:43.699Z,99292.31
2022-09-15T13:22:47.153Z,99292.69
2022-09-15T13:27:50.660Z,99292.59
2022-09-15T13:32:57.297Z,99281.38
2022-09-15T13:38:31.805Z,99278.31
2022-09-15T13:43:46.245Z,99282.63
2022-09-15T13:48:55.730Z,99275.16
2022-09-15T13:53:59.581Z,99274.13
2022-09-15T13:59:10.180Z,99278.94
2022-09-15T14:04:17.843Z,99273.25
2022-09-15T14:09:22.601Z,99278.50
2022-09-15T14:14:33.238Z,99275.66
2022-09-15T14:19:38.004Z,99276.81
2022-09-15T14:24:40.651Z,99275.09
2022-09-15T14:29:43.511Z,99271.19
2022-09-15T14:39:56.624Z,99260.50
2022-09-15T14:50:36.914Z,99262.25
2022-09-15T14:55:41.046Z,99264.56
2022-09-15T15:00:51.214Z,99251.25
2022-09-15T15:06:02.882Z,99246.88
2022-09-15T15:11:10.995Z,99245.19
2022-09-15T15:16:23.447Z,99244.03
2022-09-15T15:21:36.726Z,99250.25
2022-09-15T15:26:40.302Z,99245.88
2022-09-15T15:31:43.281Z,99250.16
2022-09-15T15:36:47.552Z,99254.63
2022-09-15T15:41:50.716Z,99259.84
2022-09-15T15:46:54.585Z,99265.53
2022-09-15T15:51:59.321Z,99260.50
2022-09-15T15:57:05.659Z,99258.56
2022-09-15T16:02:11.259Z,99256.56
2022-09-15T16:07:17.571Z,99257.44
2022-09-15T16:12:20.298Z,99256.94
2022-09-15T16:17:23.004Z,99263.84
2022-09-15T16:22:27.221Z,99261.66
2022-09-15T16:27:30.218Z,99272.41
2022-09-15T16:32:32.903Z,99275.75
2022-09-15T16:37:37.024Z,99285.25
2022-09-15T16:42:39.892Z,99294.25
2022-09-15T16:47:42.527Z,99298.59
2022-09-15T16:52:46.538Z,99299.75
2022-09-15T16:57:49.167Z,99297.78
2022-09-15T17:02:52.234Z,99293.31
2022-09-15T17:07:56.707Z,99298.72
2022-09-15T17:12:59.398Z,99298.47
2022-09-15T17:18:02.110Z,99295.81
2022-09-15T17:23:14.606Z,99290.75
2022-09-15T17:28:21.087Z,99300.03
2022-09-15T17:33:24.082Z,99285.84
2022-09-15T17:38:28.196Z,99298.19
2022-09-15T17:43:31.849Z,99296.59
2022-09-15T17:48:34.587Z,99304.75
2022-09-15T17:53:38.692Z,99299.72
2022-09-15T17:58:41.949Z,99301.97
2022-09-15T18:03:45.203Z,99303.16
2022-09-15T18:08:49.314Z,99306.09
2022-09-15T18:13:52.082Z,99318.06
2022-09-15T18:18:54.801Z,99314.59
2022-09-15T18:23:58.900Z,99324.09
2022-09-15T18:29:02.094Z,99319.91
2022-09-15T18:34:04.908Z,99328.22
2022-09-15T18:39:11.177Z,99328.22
2022-09-15T18:44:13.876Z,99340.19
2022-09-15T18:49:16.812Z,99342.41
2022-09-15T18:54:20.879Z,99342.94
2022-09-15T18:59:23.587Z,99345.47
2022-09-15T19:04:31.610Z,99350.53
2022-09-15T19:09:36.916Z,99346.69
2022-09-15T19:14:43.312Z,99352.44
2022-09-15T19:19:48.759Z,99353.66
2022-09-15T19:24:52.753Z,99343.72
2022-09-15T19:29:55.438Z,99356.72
2022-09-15T19:34:58.137Z,99359.75
2022-09-15T19:40:03.223Z,99353.53
2022-09-15T19:45:06.769Z,99355.22
2022-09-15T19:50:09.948Z,99366.72
2022-09-15T19:55:13.957Z,99364.19
2022-09-15T20:00:16.762Z,99357.13
2022-09-15T20:05:19.713Z,99359.66
2022-09-15T20:10:23.718Z,99363.56
2022-09-15T20:15:26.482Z,99368.13
2022-09-15T20:20:29.090Z,99369.97
2022-09-15T20:25:33.289Z,99380.25
2022-09-15T20:30:36.080Z,99390.06
2022-09-15T20:35:39.089Z,99391.78
2022-09-15T20:40:43.336Z,99398.00
2022-09-15T20:45:54.902Z,99388.91
2022-09-15T20:51:03.924Z,99379.97
2022-09-15T20:56:08.365Z,99396.84
2022-09-15T21:01:12.254Z,99402.38
2022-09-15T21:06:16.000Z,99398.19
2022-09-15T21:11:20.972Z,99398.34
2022-09-15T21:16:25.297Z,99391.78
2022-09-15T21:21:29.724Z,99400.41
2022-09-15T21:26:34.504Z,99401.25
2022-09-15T21:31:37.223Z,99403.09
2022-09-15T21:36:40.650Z,99407.50
2022-09-15T21:41:44.647Z,99406.31
2022-09-15T21:46:47.760Z,99422.16
2022-09-15T21:51:50.403Z,99432.81
2022-09-15T21:56:54.437Z,99441.91
2022-09-15T22:01:57.701Z,99451.69
2022-09-15T22:07:00.468Z,99457.91
2022-09-15T22:12:04.774Z,99459.78
2022-09-15T22:17:07.473Z,99456.41
2022-09-15T22:22:10.181Z,99450.66
2022-09-15T22:27:14.212Z,99455.72
2022-09-15T22:32:16.933Z,99448.66
2022-09-15T22:37:19.832Z,99455.72
2022-09-15T22:42:24.177Z,99451.19
2022-09-15T22:47:26.839Z,99451.19
2022-09-15T22:52:29.756Z,99446.63
2022-09-15T22:57:37.232Z,99449.03
2022-09-15T23:02:39.904Z,99446.63
2022-09-15T23:07:42.778Z,99447.47
2022-09-15T23:12:46.946Z,99447.31
2022-09-15T23:17:49.746Z,99445.78
2022-09-15T23:22:53.363Z,99444.28
2022-09-15T23:27:57.358Z,99446.59
2022-09-15T23:33:00.093Z,99457.19
2022-09-15T23:38:02.768Z,99451.41
2022-09-15T23:43:07.025Z,99450.88
2022-09-15T23:48:09.795Z,99450.63
2022-09-15T23:53:12.528Z,99460.19
2022-09-15T23:58:16.699Z,99455.44
